Terminal Aerodrome Forecast
Issued by NWS Amarillo, TX

Home | Current Version | Previous Version | Text Only | Print | Product List | Glossary On
Versions: 1 2 3 4 5 6 7 8 9 10 11 12 13 14 15
000
FTUS44 KAMA 011720
TAFAMA
TAF
KAMA 011720Z 0118/0218 18018G28KT P6SM FEW070
     FM020100 17014KT P6SM FEW120
     FM021400 20015G25KT P6SM FEW200=

USA.gov is the U.S. government's official web portal to all federal, state and local government web resources and services.